createdAt,value
2023-03-02T00:01:57.642Z,-0.07
2023-03-02T00:04:28.626Z,-0.05
2023-03-02T00:07:01.082Z,-0.06
2023-03-02T00:09:31.795Z,-0.19
2023-03-02T00:12:00.177Z,-0.23
2023-03-02T00:14:29.529Z,0.01
2023-03-02T00:16:57.893Z,-0.08
2023-03-02T00:19:27.736Z,0.00
2023-03-02T00:21:56.684Z,-0.01
2023-03-02T00:24:24.968Z,-0.09
2023-03-02T00:26:54.668Z,-0.01
2023-03-02T00:29:23.657Z,-0.15
2023-03-02T00:31:51.874Z,-0.16
2023-03-02T00:34:20.480Z,-0.19
2023-03-02T00:36:49.670Z,-0.19
2023-03-02T00:39:20.730Z,-0.34
2023-03-02T00:41:49.922Z,-0.18
2023-03-02T00:44:19.555Z,-0.23
2023-03-02T00:46:47.727Z,-0.40
2023-03-02T00:49:16.438Z,-0.26
2023-03-02T00:51:44.610Z,-0.43
2023-03-02T00:54:12.649Z,-0.45
2023-03-02T00:56:41.401Z,-0.27
2023-03-02T00:59:26.764Z,-0.20
2023-03-02T01:01:59.440Z,-0.15
2023-03-02T01:04:29.925Z,-0.28
2023-03-02T01:06:58.826Z,-0.27
2023-03-02T01:09:27.689Z,-0.42
2023-03-02T01:11:56.149Z,-0.59
2023-03-02T01:14:25.175Z,-0.57
2023-03-02T01:16:54.377Z,-0.63
2023-03-02T01:19:24.146Z,-0.69
2023-03-02T01:21:52.649Z,-0.69
2023-03-02T01:24:23.348Z,-0.51
2023-03-02T01:26:51.609Z,-0.39
2023-03-02T01:29:20.277Z,-0.49
2023-03-02T01:31:49.332Z,-0.44
2023-03-02T01:34:17.805Z,-0.41
2023-03-02T01:36:47.431Z,-0.48
2023-03-02T01:39:16.878Z,-0.42
2023-03-02T01:41:45.855Z,-0.49
2023-03-02T01:44:36.912Z,-0.69
2023-03-02T01:47:07.143Z,-0.70
2023-03-02T01:49:39.268Z,-0.81
2023-03-02T01:52:10.630Z,-0.83
2023-03-02T01:54:40.084Z,-0.77
2023-03-02T01:57:09.321Z,-0.79
2023-03-02T01:59:39.684Z,-0.84
2023-03-02T02:02:13.552Z,-0.75
2023-03-02T02:04:46.413Z,-0.80
2023-03-02T02:07:17.334Z,-0.88
2023-03-02T02:09:48.466Z,-0.83
2023-03-02T02:12:18.921Z,-0.85
2023-03-02T02:14:48.221Z,-0.81
2023-03-02T02:17:17.662Z,-0.91
2023-03-02T02:19:57.124Z,-0.87
2023-03-02T02:22:41.518Z,-0.82
2023-03-02T02:25:19.800Z,-0.79
2023-03-02T02:27:49.790Z,-0.74
2023-03-02T02:30:20.004Z,-0.57
2023-03-02T02:32:51.158Z,-0.65
2023-03-02T02:35:24.850Z,-0.72
2023-03-02T02:37:56.635Z,-0.65
2023-03-02T02:40:43.248Z,-0.70
2023-03-02T02:43:14.385Z,-0.69
2023-03-02T02:45:44.015Z,-0.55
2023-03-02T02:48:16.685Z,-0.56
2023-03-02T02:50:46.022Z,-0.57
2023-03-02T02:53:19.179Z,-0.62
2023-03-02T02:55:50.213Z,-0.59
2023-03-02T02:58:29.754Z,-0.67
2023-03-02T03:00:58.631Z,-0.67
2023-03-02T03:03:31.432Z,-0.45
2023-03-02T03:06:02.617Z,-0.49
2023-03-02T03:09:00.083Z,-0.33
2023-03-02T03:11:31.626Z,-0.21
2023-03-02T03:14:08.789Z,-0.41
2023-03-02T03:16:39.756Z,-0.38
2023-03-02T03:19:15.574Z,-0.42
2023-03-02T03:21:44.330Z,-0.35
2023-03-02T03:24:12.630Z,-0.46
2023-03-02T03:26:41.103Z,-0.54
2023-03-02T03:29:11.866Z,-0.59
2023-03-02T03:31:40.263Z,-0.68
2023-03-02T03:34:09.040Z,-0.76
2023-03-02T03:36:39.037Z,-0.66
2023-03-02T03:39:07.814Z,-0.51
2023-03-02T03:41:36.596Z,-0.70
2023-03-02T03:44:05.508Z,-0.76
2023-03-02T03:46:36.456Z,-0.85
2023-03-02T03:49:06.388Z,-0.78
2023-03-02T03:51:35.574Z,-0.93
2023-03-02T03:54:05.066Z,-0.75
2023-03-02T03:56:35.609Z,-0.96
2023-03-02T03:59:08.033Z,-1.01
2023-03-02T04:01:40.713Z,-1.01
2023-03-02T04:04:16.138Z,-0.87
2023-03-02T04:06:44.973Z,-0.87
2023-03-02T04:09:15.652Z,-0.73
2023-03-02T04:11:45.957Z,-0.74
2023-03-02T04:14:15.357Z,-0.75
2023-03-02T04:16:46.608Z,-0.85
2023-03-02T04:19:17.601Z,-0.89
2023-03-02T04:21:49.162Z,-0.91
2023-03-02T04:24:18.804Z,-0.90
2023-03-02T04:26:49.622Z,-0.85
2023-03-02T04:29:18.805Z,-1.00
2023-03-02T04:31:50.129Z,-1.10
2023-03-02T04:34:18.747Z,-0.93
2023-03-02T04:36:47.496Z,-1.11
2023-03-02T04:39:18.535Z,-0.91
2023-03-02T04:41:48.190Z,-0.87
2023-03-02T04:44:19.237Z,-0.90
2023-03-02T04:46:49.846Z,-0.88
2023-03-02T04:49:19.944Z,-0.97
2023-03-02T04:51:49.929Z,-1.06
2023-03-02T04:54:22.043Z,-1.17
2023-03-02T04:56:51.820Z,-0.91
2023-03-02T04:59:26.055Z,-0.90
2023-03-02T05:01:57.189Z,-0.88
2023-03-02T05:04:25.988Z,-0.84
2023-03-02T05:06:54.186Z,-0.89
2023-03-02T05:09:27.376Z,-0.91
2023-03-02T05:11:56.069Z,-0.95
2023-03-02T05:14:24.511Z,-1.01
2023-03-02T05:16:53.144Z,-0.96
2023-03-02T05:19:23.004Z,-0.99
2023-03-02T05:21:51.431Z,-0.91
2023-03-02T05:24:20.532Z,-0.88
2023-03-02T05:26:48.862Z,-0.92
2023-03-02T05:29:17.074Z,-1.01
2023-03-02T05:31:46.995Z,-1.07
2023-03-02T05:34:17.427Z,-1.07
2023-03-02T05:36:47.592Z,-1.07
2023-03-02T05:39:15.850Z,-0.93
2023-03-02T05:41:44.032Z,-0.96
2023-03-02T05:44:13.099Z,-1.01
2023-03-02T05:46:41.661Z,-1.06
2023-03-02T05:49:16.290Z,-0.96
2023-03-02T05:51:44.639Z,-1.06
2023-03-02T05:54:13.978Z,-1.13
2023-03-02T05:56:42.521Z,-1.16
2023-03-02T05:59:10.431Z,-1.07
2023-03-02T06:01:39.121Z,-1.24
2023-03-02T06:04:08.200Z,-1.16
2023-03-02T06:06:36.733Z,-1.08
2023-03-02T06:09:05.202Z,-0.92
2023-03-02T06:11:35.524Z,-0.82
2023-03-02T06:14:03.564Z,-0.58
2023-03-02T06:16:33.969Z,-0.47
2023-03-02T06:19:04.055Z,-0.50
2023-03-02T06:21:32.722Z,-0.43
2023-03-02T06:24:00.928Z,-0.37
2023-03-02T06:26:29.794Z,-0.15
2023-03-02T06:29:00.119Z,0.01
2023-03-02T06:31:29.020Z,0.23
2023-03-02T06:34:00.659Z,0.46
2023-03-02T06:36:29.820Z,0.79
2023-03-02T06:38:58.476Z,1.94
2023-03-02T06:41:27.727Z,3.20
2023-03-02T06:43:57.094Z,4.04
2023-03-02T06:46:27.055Z,5.12
2023-03-02T06:48:57.942Z,6.05
2023-03-02T06:51:27.194Z,5.60
2023-03-02T06:53:59.049Z,7.47
2023-03-02T06:56:27.639Z,7.46
2023-03-02T06:58:56.905Z,9.34
2023-03-02T07:01:26.970Z,8.20
2023-03-02T07:03:55.321Z,9.74
2023-03-02T07:06:23.603Z,10.28
2023-03-02T07:08:52.215Z,10.66
2023-03-02T07:11:22.824Z,10.97
2023-03-02T07:13:52.015Z,10.71
2023-03-02T07:16:20.217Z,10.42
2023-03-02T07:18:50.288Z,12.20
2023-03-02T07:21:18.673Z,12.98
2023-03-02T07:23:47.888Z,12.60
2023-03-02T07:26:16.361Z,12.34
2023-03-02T07:28:44.549Z,12.74
2023-03-02T07:31:13.320Z,13.51
2023-03-02T07:33:42.927Z,12.58
2023-03-02T07:36:12.483Z,14.94
2023-03-02T07:38:40.530Z,15.01
2023-03-02T07:41:10.413Z,15.40
2023-03-02T07:43:39.310Z,14.24
2023-03-02T07:46:07.906Z,15.31
2023-03-02T07:48:36.669Z,17.20
2023-03-02T07:51:06.706Z,18.09
2023-03-02T07:53:37.192Z,16.96
2023-03-02T07:56:10.605Z,15.77
2023-03-02T07:58:39.699Z,13.64
2023-03-02T08:01:08.949Z,16.31
2023-03-02T08:03:37.789Z,17.46
2023-03-02T08:06:07.837Z,17.85
2023-03-02T08:08:38.468Z,15.94
2023-03-02T08:11:09.274Z,18.13
2023-03-02T08:13:37.782Z,18.21
2023-03-02T08:16:08.254Z,18.77
2023-03-02T08:18:38.327Z,16.43
2023-03-02T08:21:13.175Z,18.92
2023-03-02T08:23:43.894Z,18.29
2023-03-02T08:26:15.853Z,17.65
2023-03-02T08:28:46.232Z,18.05
2023-03-02T08:31:15.503Z,19.64
2023-03-02T08:33:44.772Z,19.61
2023-03-02T08:36:16.210Z,18.80
2023-03-02T08:38:46.585Z,19.58
2023-03-02T08:41:17.333Z,19.61
2023-03-02T08:43:45.691Z,19.44
2023-03-02T08:46:15.180Z,18.84
2023-03-02T08:48:44.258Z,18.98
2023-03-02T08:51:15.013Z,18.61
2023-03-02T08:53:47.496Z,19.33
2023-03-02T08:56:20.942Z,20.15
2023-03-02T08:58:53.321Z,20.12
2023-03-02T09:01:23.498Z,21.10
2023-03-02T09:03:52.730Z,21.14
2023-03-02T09:06:21.114Z,21.39
2023-03-02T09:08:52.065Z,21.82
2023-03-02T09:11:21.035Z,18.38
2023-03-02T09:13:49.438Z,17.41
2023-03-02T09:16:20.288Z,19.75
2023-03-02T09:18:49.819Z,20.76
2023-03-02T09:21:18.852Z,19.39
2023-03-02T09:23:47.954Z,18.79
2023-03-02T09:26:18.690Z,20.00
2023-03-02T09:28:46.940Z,21.25
2023-03-02T09:31:15.319Z,21.01
2023-03-02T09:33:44.194Z,20.36
2023-03-02T09:36:16.978Z,20.35
2023-03-02T09:38:45.961Z,18.51
2023-03-02T09:41:50.637Z,17.43
2023-03-02T09:44:36.511Z,19.36
2023-03-02T09:47:07.034Z,19.04
2023-03-02T09:49:52.332Z,18.09
2023-03-02T09:52:32.286Z,15.49
2023-03-02T09:55:04.548Z,13.22
2023-03-02T09:57:39.955Z,13.80
2023-03-02T10:00:19.430Z,13.88
2023-03-02T10:02:50.697Z,12.80
2023-03-02T10:05:22.133Z,13.53
2023-03-02T10:07:50.384Z,12.37
2023-03-02T10:10:28.044Z,12.40
2023-03-02T10:13:12.769Z,12.76
2023-03-02T10:15:50.781Z,12.72
2023-03-02T10:18:24.487Z,12.83
2023-03-02T10:20:58.412Z,12.09
2023-03-02T10:23:41.699Z,12.09
2023-03-02T10:26:24.251Z,11.51
2023-03-02T10:29:01.614Z,11.71
2023-03-02T10:31:34.840Z,12.10
2023-03-02T10:34:02.973Z,11.53
2023-03-02T10:36:40.575Z,12.21
2023-03-02T10:39:15.392Z,12.00
2023-03-02T10:41:50.036Z,11.81
2023-03-02T10:44:23.872Z,12.15
2023-03-02T10:46:54.582Z,12.19
2023-03-02T10:49:28.088Z,12.28
2023-03-02T10:51:59.536Z,12.57
2023-03-02T10:54:28.920Z,11.62
2023-03-02T10:57:01.174Z,12.06
2023-03-02T10:59:47.816Z,12.44
2023-03-02T11:02:23.094Z,12.81
2023-03-02T11:04:57.706Z,12.51
2023-03-02T11:07:29.316Z,12.07
2023-03-02T11:10:05.723Z,12.90
2023-03-02T11:12:37.883Z,12.84
2023-03-02T11:15:23.847Z,13.06
2023-03-02T11:18:01.631Z,12.66
2023-03-02T11:20:33.913Z,12.68
2023-03-02T11:23:23.788Z,12.01
2023-03-02T11:25:57.135Z,12.11
2023-03-02T11:28:42.775Z,11.95
2023-03-02T11:31:21.495Z,11.86
2023-03-02T11:34:11.945Z,11.91
2023-03-02T11:36:52.347Z,11.88
2023-03-02T11:39:27.485Z,11.80
2023-03-02T11:41:55.903Z,11.59
2023-03-02T11:44:27.963Z,11.43
2023-03-02T11:47:02.098Z,12.18
2023-03-02T11:49:41.194Z,12.30
2023-03-02T11:52:20.046Z,11.61
2023-03-02T11:54:54.831Z,11.83
2023-03-02T11:57:29.134Z,11.97
2023-03-02T11:59:59.826Z,11.90
2023-03-02T12:02:30.010Z,11.89
2023-03-02T12:05:06.519Z,12.02
2023-03-02T12:07:34.753Z,11.84
2023-03-02T12:10:08.042Z,11.92
2023-03-02T12:12:42.043Z,11.83
2023-03-02T12:15:30.286Z,12.02
2023-03-02T12:17:59.745Z,12.04
2023-03-02T12:20:31.003Z,12.01
2023-03-02T12:23:11.515Z,12.43
2023-03-02T12:25:50.276Z,12.19
2023-03-02T12:28:31.820Z,12.48
2023-03-02T12:31:10.622Z,12.29
2023-03-02T12:33:49.228Z,12.17
2023-03-02T12:36:25.071Z,12.32
2023-03-02T12:39:15.051Z,11.95
2023-03-02T12:42:06.117Z,11.91
2023-03-02T12:44:49.798Z,12.25
2023-03-02T12:47:26.544Z,11.85
2023-03-02T12:49:58.853Z,11.84
2023-03-02T12:52:33.687Z,11.78
2023-03-02T12:55:05.392Z,12.00
2023-03-02T12:57:34.716Z,12.11
2023-03-02T13:00:04.768Z,12.10
2023-03-02T13:02:36.312Z,12.03
2023-03-02T13:05:09.005Z,12.32
2023-03-02T13:07:39.793Z,12.38
2023-03-02T13:10:22.641Z,12.35
2023-03-02T13:12:51.268Z,12.32
2023-03-02T13:15:20.182Z,12.63
2023-03-02T13:17:56.808Z,12.22
2023-03-02T13:20:29.960Z,12.18
2023-03-02T13:22:59.247Z,12.06
2023-03-02T13:25:30.018Z,12.26
2023-03-02T13:28:01.272Z,12.39
2023-03-02T13:30:32.420Z,12.20
2023-03-02T13:33:04.362Z,12.22
2023-03-02T13:35:38.060Z,12.53
2023-03-02T13:38:15.800Z,12.63
2023-03-02T13:40:47.682Z,12.35
2023-03-02T13:43:35.505Z,12.35
2023-03-02T13:46:06.221Z,12.26
2023-03-02T13:48:34.545Z,12.51
2023-03-02T13:51:15.156Z,12.67
2023-03-02T13:53:52.332Z,12.38
2023-03-02T13:56:22.375Z,12.54
2023-03-02T13:58:50.947Z,12.55
2023-03-02T14:01:25.087Z,12.44
2023-03-02T14:03:54.892Z,12.51
2023-03-02T14:06:25.960Z,12.25
2023-03-02T14:08:54.997Z,12.30
2023-03-02T14:11:25.507Z,12.56
2023-03-02T14:13:55.894Z,12.60
2023-03-02T14:16:24.398Z,12.64
2023-03-02T14:18:53.940Z,12.78
2023-03-02T14:21:23.924Z,12.60
2023-03-02T14:23:54.688Z,12.82
2023-03-02T14:26:32.007Z,12.82
2023-03-02T14:29:06.292Z,12.67
2023-03-02T14:31:35.770Z,12.56
2023-03-02T14:34:05.235Z,12.70
2023-03-02T14:36:35.238Z,13.02
2023-03-02T14:39:12.485Z,12.74
2023-03-02T14:41:53.021Z,13.18
2023-03-02T14:44:23.267Z,12.62
2023-03-02T14:46:51.746Z,12.77
2023-03-02T14:49:20.446Z,12.89
2023-03-02T14:51:58.257Z,12.64
2023-03-02T14:54:31.979Z,12.97
2023-03-02T14:57:00.972Z,12.69
2023-03-02T14:59:29.366Z,12.78
2023-03-02T15:02:02.456Z,12.91
2023-03-02T15:04:36.634Z,12.70
2023-03-02T15:07:05.841Z,12.68
2023-03-02T15:09:35.745Z,12.67
2023-03-02T15:12:04.486Z,12.59
2023-03-02T15:14:35.742Z,12.67
2023-03-02T15:17:04.678Z,12.78
2023-03-02T15:19:33.691Z,12.60
2023-03-02T15:22:02.492Z,12.33
2023-03-02T15:24:33.165Z,12.00
2023-03-02T15:27:03.618Z,11.67
2023-03-02T15:29:32.237Z,11.65
2023-03-02T15:32:01.112Z,11.42
2023-03-02T15:34:30.078Z,11.60
2023-03-02T15:36:58.260Z,11.41
2023-03-02T15:39:26.810Z,11.47
2023-03-02T15:41:55.584Z,11.10
2023-03-02T15:44:26.399Z,10.97
2023-03-02T15:46:56.223Z,10.77
2023-03-02T15:49:27.312Z,10.61
2023-03-02T15:51:58.042Z,10.54
2023-03-02T15:54:28.598Z,10.36
2023-03-02T15:56:57.412Z,10.34
2023-03-02T15:59:28.834Z,10.12
2023-03-02T16:02:00.029Z,10.09
2023-03-02T16:04:29.064Z,9.95
2023-03-02T16:06:57.435Z,9.84
2023-03-02T16:09:29.425Z,9.80
2023-03-02T16:11:57.656Z,9.83
2023-03-02T16:14:27.605Z,9.55
2023-03-02T16:16:56.628Z,9.37
2023-03-02T16:19:25.176Z,9.36
2023-03-02T16:21:53.556Z,8.98
2023-03-02T16:24:22.249Z,8.91
2023-03-02T16:26:54.966Z,8.98
2023-03-02T16:29:24.512Z,8.90
2023-03-02T16:31:54.309Z,8.87
2023-03-02T16:34:23.035Z,8.77
2023-03-02T16:36:51.717Z,8.70
2023-03-02T16:39:20.859Z,8.54
2023-03-02T16:41:49.236Z,8.46
2023-03-02T16:44:17.860Z,8.29
2023-03-02T16:46:46.739Z,8.30
2023-03-02T16:49:16.580Z,8.18
2023-03-02T16:51:45.457Z,7.99
2023-03-02T16:54:19.613Z,7.95
2023-03-02T16:56:48.419Z,7.84
2023-03-02T16:59:17.069Z,7.75
2023-03-02T17:01:46.300Z,7.67
2023-03-02T17:04:18.515Z,7.58
2023-03-02T17:07:03.653Z,7.47
2023-03-02T17:09:33.129Z,7.48
2023-03-02T17:12:01.728Z,7.37
2023-03-02T17:14:30.320Z,7.33
2023-03-02T17:16:58.384Z,7.27
2023-03-02T17:19:30.026Z,7.22
2023-03-02T17:21:59.255Z,7.14
2023-03-02T17:24:28.146Z,7.06
2023-03-02T17:26:58.621Z,7.07
2023-03-02T17:29:26.627Z,7.11
2023-03-02T17:31:55.063Z,7.06
2023-03-02T17:34:24.154Z,7.03
2023-03-02T17:36:54.017Z,6.79
2023-03-02T17:39:22.495Z,6.83
2023-03-02T17:41:51.290Z,6.91
2023-03-02T17:44:19.602Z,6.76
2023-03-02T17:46:49.368Z,6.84
2023-03-02T17:49:18.264Z,6.80
2023-03-02T17:51:46.440Z,6.67
2023-03-02T17:54:16.410Z,6.54
2023-03-02T17:56:44.417Z,6.34
2023-03-02T17:59:13.258Z,6.63
2023-03-02T18:01:44.098Z,6.43
2023-03-02T18:04:12.802Z,6.56
2023-03-02T18:06:42.234Z,6.54
2023-03-02T18:09:11.995Z,6.51
2023-03-02T18:11:42.636Z,6.40
2023-03-02T18:14:14.776Z,6.29
2023-03-02T18:16:42.861Z,6.35
2023-03-02T18:19:11.437Z,6.33
2023-03-02T18:21:42.247Z,6.37
2023-03-02T18:24:11.062Z,6.23
2023-03-02T18:26:39.797Z,6.30
2023-03-02T18:29:09.739Z,6.14
2023-03-02T18:31:38.157Z,6.04
2023-03-02T18:34:06.410Z,5.92
2023-03-02T18:36:35.607Z,6.05
2023-03-02T18:39:04.845Z,6.06
2023-03-02T18:41:33.480Z,5.96
2023-03-02T18:44:04.071Z,6.00
2023-03-02T18:46:34.477Z,5.83
2023-03-02T18:49:05.042Z,5.61
2023-03-02T18:51:33.352Z,5.58
2023-03-02T18:54:01.406Z,5.46
2023-03-02T18:56:30.497Z,5.51
2023-03-02T18:58:59.003Z,5.45
2023-03-02T19:01:33.809Z,5.45
2023-03-02T19:04:03.741Z,5.32
2023-03-02T19:06:31.944Z,5.14
2023-03-02T19:09:00.829Z,5.09
2023-03-02T19:11:29.121Z,5.11
2023-03-02T19:13:57.660Z,4.99
2023-03-02T19:16:26.199Z,4.72
2023-03-02T19:18:55.766Z,4.79
2023-03-02T19:21:24.124Z,4.71
2023-03-02T19:23:53.228Z,4.94
2023-03-02T19:26:21.703Z,4.80
2023-03-02T19:28:50.100Z,4.77
2023-03-02T19:31:18.683Z,4.62
2023-03-02T19:33:47.043Z,4.67
2023-03-02T19:36:16.872Z,4.37
2023-03-02T19:38:45.345Z,4.34
2023-03-02T19:41:16.388Z,4.31
2023-03-02T19:43:46.410Z,4.19
2023-03-02T19:46:15.331Z,4.40
2023-03-02T19:48:43.720Z,4.33
2023-03-02T19:51:12.684Z,4.36
2023-03-02T19:53:43.695Z,4.31
2023-03-02T19:56:15.419Z,4.42
2023-03-02T19:58:50.058Z,4.31
2023-03-02T20:01:22.211Z,4.37
2023-03-02T20:03:51.851Z,4.26
2023-03-02T20:06:20.269Z,4.31
2023-03-02T20:08:54.230Z,4.02
2023-03-02T20:11:22.542Z,4.19
2023-03-02T20:13:56.126Z,4.17
2023-03-02T20:16:26.727Z,4.10
2023-03-02T20:18:56.028Z,4.01
2023-03-02T20:21:27.097Z,3.96
2023-03-02T20:23:57.417Z,3.96
2023-03-02T20:26:26.309Z,3.81
2023-03-02T20:28:56.969Z,3.96
2023-03-02T20:31:26.574Z,4.04
2023-03-02T20:33:57.058Z,4.07
2023-03-02T20:36:30.446Z,4.14
2023-03-02T20:39:04.218Z,4.12
2023-03-02T20:41:32.948Z,4.05
2023-03-02T20:44:01.092Z,3.70
2023-03-02T20:46:31.857Z,3.78
2023-03-02T20:49:00.701Z,3.68
2023-03-02T20:51:30.103Z,3.68
2023-03-02T20:54:00.268Z,3.74
2023-03-02T20:56:29.066Z,3.54
2023-03-02T20:58:57.341Z,3.53
2023-03-02T21:01:25.600Z,3.27
2023-03-02T21:03:54.580Z,3.39
2023-03-02T21:06:23.439Z,3.17
2023-03-02T21:08:52.773Z,3.17
2023-03-02T21:11:23.948Z,2.99
2023-03-02T21:13:55.858Z,3.07
2023-03-02T21:16:27.732Z,2.94
2023-03-02T21:18:56.248Z,2.89
2023-03-02T21:21:40.364Z,3.10
2023-03-02T21:24:10.460Z,3.02
2023-03-02T21:26:41.576Z,2.92
2023-03-02T21:29:12.349Z,2.61
2023-03-02T21:31:42.190Z,2.67
2023-03-02T21:34:10.984Z,2.59
2023-03-02T21:36:39.629Z,2.65
2023-03-02T21:39:09.752Z,2.55
2023-03-02T21:41:41.046Z,2.49
2023-03-02T21:44:09.908Z,2.44
2023-03-02T21:46:39.929Z,2.34
2023-03-02T21:49:08.910Z,2.27
2023-03-02T21:51:37.296Z,2.38
2023-03-02T21:54:05.794Z,2.42
2023-03-02T21:56:34.576Z,2.40
2023-03-02T21:59:05.085Z,2.31
2023-03-02T22:01:33.923Z,2.34
2023-03-02T22:04:02.650Z,2.23
2023-03-02T22:06:32.745Z,2.35
2023-03-02T22:09:01.675Z,2.14
2023-03-02T22:11:32.396Z,2.18
2023-03-02T22:14:04.582Z,2.17
2023-03-02T22:16:37.210Z,2.13
2023-03-02T22:19:20.407Z,2.25
2023-03-02T22:21:50.050Z,2.13
2023-03-02T22:24:24.111Z,1.86
2023-03-02T22:26:59.866Z,1.95
2023-03-02T22:29:33.770Z,1.98
2023-03-02T22:32:14.960Z,1.75
2023-03-02T22:34:44.963Z,1.80
2023-03-02T22:37:15.609Z,1.62
2023-03-02T22:39:44.607Z,1.86
2023-03-02T22:42:16.449Z,1.73
2023-03-02T22:44:48.978Z,1.68
2023-03-02T22:47:20.281Z,1.69
2023-03-02T22:49:55.322Z,1.76
2023-03-02T22:52:26.303Z,1.74
2023-03-02T22:54:55.200Z,1.94
2023-03-02T22:57:31.677Z,1.93
2023-03-02T23:00:41.152Z,1.87
2023-03-02T23:03:18.966Z,1.88
2023-03-02T23:05:49.284Z,1.98
2023-03-02T23:08:23.202Z,1.76
2023-03-02T23:10:52.951Z,2.07
2023-03-02T23:13:27.256Z,2.05
2023-03-02T23:15:56.281Z,1.94
2023-03-02T23:18:29.004Z,1.81
2023-03-02T23:20:57.709Z,1.69
2023-03-02T23:23:28.019Z,1.61
2023-03-02T23:25:57.066Z,1.70
2023-03-02T23:28:25.064Z,1.62
2023-03-02T23:30:53.700Z,1.91
2023-03-02T23:33:22.440Z,1.84
2023-03-02T23:35:52.362Z,1.87
2023-03-02T23:38:20.475Z,1.81
2023-03-02T23:40:49.437Z,1.59
2023-03-02T23:43:19.959Z,1.47
2023-03-02T23:45:48.806Z,1.26
2023-03-02T23:48:16.813Z,1.19
2023-03-02T23:50:45.748Z,1.24
2023-03-02T23:53:15.962Z,1.25
2023-03-02T23:55:48.735Z,1.09
2023-03-02T23:58:20.636Z,1.04
